createdAt,value
2018-07-24T00:02:20.699Z,18.42
2018-07-24T00:04:47.247Z,18.48
2018-07-24T00:07:14.345Z,18.45
2018-07-24T00:09:40.886Z,18.43
2018-07-24T00:12:07.423Z,18.44
2018-07-24T00:14:33.993Z,18.37
2018-07-24T00:17:00.824Z,18.30
2018-07-24T00:19:27.359Z,18.21
2018-07-24T00:21:53.914Z,18.23
2018-07-24T00:24:20.457Z,18.16
2018-07-24T00:26:47.328Z,18.08
2018-07-24T00:29:13.864Z,18.02
2018-07-24T00:31:40.409Z,17.96
2018-07-24T00:34:06.944Z,17.95
2018-07-24T00:36:33.774Z,17.92
2018-07-24T00:39:00.324Z,17.89
2018-07-24T00:41:26.868Z,17.88
2018-07-24T00:43:53.484Z,17.85
2018-07-24T00:46:20.323Z,17.81
2018-07-24T00:48:47.879Z,17.80
2018-07-24T00:51:14.412Z,17.80
2018-07-24T00:53:40.966Z,17.80
2018-07-24T00:56:07.793Z,17.74
2018-07-24T00:58:34.338Z,17.71
2018-07-24T01:01:00.888Z,17.69
2018-07-24T01:03:27.433Z,17.66
2018-07-24T01:05:54.260Z,17.62
2018-07-24T01:08:20.806Z,17.59
2018-07-24T01:10:47.357Z,17.54
2018-07-24T01:13:13.912Z,17.49
2018-07-24T01:15:40.779Z,17.48
2018-07-24T01:18:07.321Z,17.45
2018-07-24T01:20:33.874Z,17.43
2018-07-24T01:23:00.412Z,17.38
2018-07-24T01:25:27.248Z,17.38
2018-07-24T01:27:53.785Z,17.35
2018-07-24T01:30:20.332Z,17.34
2018-07-24T01:32:46.799Z,17.37
2018-07-24T01:35:13.623Z,17.34
2018-07-24T01:37:40.123Z,17.30
2018-07-24T01:40:06.621Z,17.29
2018-07-24T01:42:33.281Z,17.36
2018-07-24T01:45:00.060Z,17.35
2018-07-24T01:47:26.541Z,17.32
2018-07-24T01:49:53.001Z,17.25
2018-07-24T01:52:19.448Z,17.25
2018-07-24T01:54:46.223Z,17.25
2018-07-24T01:57:12.717Z,17.27
2018-07-24T01:59:39.218Z,17.29
2018-07-24T02:02:05.717Z,17.37
2018-07-24T02:04:32.478Z,17.33
2018-07-24T02:06:58.980Z,17.29
2018-07-24T02:09:25.476Z,17.38
2018-07-24T02:11:51.961Z,17.42
2018-07-24T02:14:18.749Z,17.42
2018-07-24T02:16:45.212Z,17.38
2018-07-24T02:19:11.684Z,17.34
2018-07-24T02:21:38.185Z,17.29
2018-07-24T02:24:04.957Z,17.30
2018-07-24T02:26:31.429Z,17.30
2018-07-24T02:28:57.930Z,17.30
2018-07-24T02:31:24.402Z,17.45
2018-07-24T02:33:51.219Z,17.44
2018-07-24T02:36:17.693Z,17.41
2018-07-24T02:38:44.182Z,17.25
2018-07-24T02:41:10.685Z,17.17
2018-07-24T02:43:37.448Z,17.06
2018-07-24T02:46:03.916Z,16.91
2018-07-24T02:48:30.371Z,16.99
2018-07-24T02:50:56.853Z,17.07
2018-07-24T02:53:23.634Z,17.08
2018-07-24T02:55:50.093Z,16.97
2018-07-24T02:58:17.642Z,16.81
2018-07-24T03:00:44.107Z,16.73
2018-07-24T03:03:10.913Z,16.64
2018-07-24T03:05:37.378Z,16.59
2018-07-24T03:08:03.866Z,16.62
2018-07-24T03:10:30.366Z,16.60
2018-07-24T03:12:57.174Z,16.58
2018-07-24T03:15:23.641Z,16.56
2018-07-24T03:17:50.129Z,16.58
2018-07-24T03:20:16.908Z,16.58
2018-07-24T03:22:43.404Z,16.58
2018-07-24T03:25:09.871Z,16.76
2018-07-24T03:27:36.652Z,16.76
2018-07-24T03:30:03.146Z,16.72
2018-07-24T03:32:29.655Z,16.70
2018-07-24T03:34:56.137Z,16.68
2018-07-24T03:37:22.909Z,16.71
2018-07-24T03:39:49.447Z,16.72
2018-07-24T03:42:16.552Z,16.71
2018-07-24T03:44:43.308Z,16.70
2018-07-24T03:47:10.598Z,16.67
2018-07-24T03:49:37.133Z,16.65
2018-07-24T03:52:03.669Z,16.67
2018-07-24T03:54:30.616Z,16.64
2018-07-24T03:56:57.677Z,16.64
2018-07-24T03:59:25.859Z,16.67
2018-07-24T04:01:52.429Z,16.68
2018-07-24T04:04:19.221Z,16.71
2018-07-24T04:06:45.694Z,16.79
2018-07-24T04:09:12.184Z,16.80
2018-07-24T04:11:38.652Z,16.82
2018-07-24T04:14:06.456Z,16.85
2018-07-24T04:16:32.961Z,17.05
2018-07-24T04:18:59.424Z,17.18
2018-07-24T04:21:25.877Z,17.14
2018-07-24T04:23:52.835Z,17.18
2018-07-24T04:26:19.296Z,17.29
2018-07-24T04:28:45.790Z,17.31
2018-07-24T04:31:12.315Z,17.26
2018-07-24T04:33:39.102Z,17.26
2018-07-24T04:36:05.625Z,17.18
2018-07-24T04:38:32.247Z,17.13
2018-07-24T04:40:59.039Z,17.15
2018-07-24T04:43:26.469Z,17.25
2018-07-24T04:45:53.039Z,17.40
2018-07-24T04:48:19.825Z,17.54
2018-07-24T04:50:46.285Z,17.53
2018-07-24T04:53:12.781Z,17.65
2018-07-24T04:55:39.527Z,17.91
2018-07-24T04:58:05.989Z,17.89
2018-07-24T05:00:32.478Z,17.75
2018-07-24T05:02:59.320Z,17.56
2018-07-24T05:05:25.875Z,17.53
2018-07-24T05:07:52.369Z,17.52
2018-07-24T05:10:19.163Z,17.65
2018-07-24T05:12:45.678Z,17.72
2018-07-24T05:15:13.506Z,17.88
2018-07-24T05:17:40.318Z,18.04
2018-07-24T05:20:06.821Z,18.02
2018-07-24T05:22:33.331Z,18.16
2018-07-24T05:25:00.093Z,18.41
2018-07-24T05:27:26.579Z,18.70
2018-07-24T05:29:53.655Z,18.73
2018-07-24T05:32:20.409Z,18.61
2018-07-24T05:34:46.909Z,18.51
2018-07-24T05:37:13.368Z,18.52
2018-07-24T05:39:40.159Z,18.58
2018-07-24T05:42:06.628Z,18.65
2018-07-24T05:44:33.175Z,18.80
2018-07-24T05:46:59.957Z,18.83
2018-07-24T05:49:26.415Z,18.89
2018-07-24T05:51:52.877Z,19.02
2018-07-24T05:54:19.621Z,19.13
2018-07-24T05:56:46.086Z,19.28
2018-07-24T05:59:12.544Z,19.46
2018-07-24T06:01:39.284Z,19.68
2018-07-24T06:04:05.743Z,19.98
2018-07-24T06:06:32.236Z,20.16
2018-07-24T06:08:59.017Z,20.28
2018-07-24T06:11:25.471Z,20.35
2018-07-24T06:13:51.944Z,20.46
2018-07-24T06:16:18.701Z,20.61
2018-07-24T06:18:45.181Z,20.73
2018-07-24T06:21:12.185Z,20.76
2018-07-24T06:23:39.169Z,20.95
2018-07-24T06:26:05.672Z,21.07
2018-07-24T06:28:32.173Z,21.19
2018-07-24T06:30:58.947Z,21.32
2018-07-24T06:33:25.461Z,21.51
2018-07-24T06:35:51.949Z,21.74
2018-07-24T06:38:18.716Z,22.03
2018-07-24T06:40:45.222Z,22.25
2018-07-24T06:43:11.692Z,22.44
2018-07-24T06:45:38.432Z,22.57
2018-07-24T06:48:04.893Z,22.76
2018-07-24T06:50:31.361Z,23.01
2018-07-24T06:52:59.632Z,23.28
2018-07-24T06:55:26.117Z,23.53
2018-07-24T06:57:52.642Z,23.76
2018-07-24T07:00:19.140Z,23.88
2018-07-24T07:02:45.606Z,24.04
2018-07-24T07:05:12.402Z,24.21
2018-07-24T07:07:39.553Z,24.45
2018-07-24T07:10:06.038Z,24.59
2018-07-24T07:12:32.826Z,24.72
2018-07-24T07:14:59.284Z,24.83
2018-07-24T07:17:25.773Z,24.95
2018-07-24T07:19:52.606Z,25.06
2018-07-24T07:22:19.089Z,25.08
2018-07-24T07:24:45.578Z,25.06
2018-07-24T07:27:12.360Z,25.17
2018-07-24T07:29:39.517Z,25.25
2018-07-24T07:32:09.769Z,25.37
2018-07-24T07:34:37.197Z,25.40
2018-07-24T07:37:03.673Z,25.59
2018-07-24T07:39:30.170Z,25.80
2018-07-24T07:42:00.206Z,25.94
2018-07-24T07:44:26.880Z,26.09
2018-07-24T07:46:53.563Z,26.16
2018-07-24T07:49:20.364Z,26.24
2018-07-24T07:51:50.855Z,26.35
2018-07-24T07:54:18.124Z,26.46
2018-07-24T07:56:44.922Z,26.62
2018-07-24T07:59:13.291Z,26.81
2018-07-24T08:01:39.819Z,26.99
2018-07-24T08:04:06.676Z,27.27
2018-07-24T08:06:33.430Z,27.49
2018-07-24T08:08:59.925Z,27.67
2018-07-24T08:11:27.254Z,27.62
2018-07-24T08:13:54.732Z,27.65
2018-07-24T08:16:21.402Z,27.60
2018-07-24T08:18:48.222Z,27.59
2018-07-24T08:21:14.688Z,27.50
2018-07-24T08:23:41.153Z,27.57
2018-07-24T08:26:08.351Z,27.74
2018-07-24T08:28:34.849Z,27.70
2018-07-24T08:31:01.369Z,27.78
2018-07-24T08:33:29.540Z,27.92
2018-07-24T08:35:56.927Z,27.99
2018-07-24T08:38:23.582Z,28.05
2018-07-24T08:40:50.434Z,28.13
2018-07-24T08:43:17.064Z,28.12
2018-07-24T08:45:43.569Z,27.97
2018-07-24T08:48:10.348Z,28.07
2018-07-24T08:50:36.877Z,27.98
2018-07-24T08:53:03.837Z,28.11
2018-07-24T08:55:31.667Z,28.45
2018-07-24T08:57:57.849Z,28.63
2018-07-24T09:00:24.311Z,28.79
2018-07-24T09:02:51.060Z,29.05
2018-07-24T09:05:17.556Z,29.16
2018-07-24T09:07:44.212Z,28.98
2018-07-24T09:10:11.242Z,29.14
2018-07-24T09:12:37.736Z,29.05
2018-07-24T09:15:04.237Z,28.73
2018-07-24T09:17:31.022Z,28.74
2018-07-24T09:19:57.527Z,29.15
2018-07-24T09:22:23.993Z,29.38
2018-07-24T09:24:50.765Z,29.37
2018-07-24T09:27:17.224Z,29.35
2018-07-24T09:29:43.724Z,29.34
2018-07-24T09:32:10.690Z,29.39
2018-07-24T09:34:37.140Z,29.76
2018-07-24T09:37:03.601Z,30.13
2018-07-24T09:39:30.376Z,30.26
2018-07-24T09:41:56.861Z,30.04
2018-07-24T09:44:23.415Z,29.82
2018-07-24T09:46:50.184Z,29.91
2018-07-24T09:49:17.264Z,30.12
2018-07-24T09:51:43.730Z,30.39
2018-07-24T09:54:10.525Z,30.35
2018-07-24T09:56:37.018Z,30.25
2018-07-24T09:59:03.522Z,30.42
2018-07-24T10:01:31.704Z,30.71
2018-07-24T10:04:00.693Z,30.87
2018-07-24T10:06:28.353Z,30.93
2018-07-24T10:08:55.271Z,31.08
2018-07-24T10:11:22.005Z,31.22
2018-07-24T10:13:48.865Z,31.37
2018-07-24T10:16:18.611Z,31.39
2018-07-24T10:18:45.343Z,31.58
2018-07-24T10:21:13.761Z,31.71
2018-07-24T10:23:40.249Z,31.83
2018-07-24T10:26:06.736Z,31.97
2018-07-24T10:28:33.919Z,31.92
2018-07-24T10:31:00.387Z,31.75
2018-07-24T10:33:30.414Z,30.89
2018-07-24T10:35:57.260Z,30.98
2018-07-24T10:38:25.126Z,31.06
2018-07-24T10:40:51.613Z,31.33
2018-07-24T10:43:18.439Z,31.49
2018-07-24T10:45:45.558Z,31.52
2018-07-24T10:48:13.934Z,31.43
2018-07-24T10:50:41.869Z,31.60
2018-07-24T10:53:08.587Z,30.88
2018-07-24T10:55:35.174Z,30.97
2018-07-24T10:58:02.124Z,31.32
2018-07-24T11:00:28.682Z,31.07
2018-07-24T11:02:57.301Z,31.33
2018-07-24T11:05:24.155Z,31.53
2018-07-24T11:07:50.964Z,31.77
2018-07-24T11:10:17.449Z,31.88
2018-07-24T11:12:45.107Z,31.97
2018-07-24T11:15:12.319Z,32.18
2018-07-24T11:17:38.826Z,32.25
2018-07-24T11:20:06.873Z,32.20
2018-07-24T11:22:33.741Z,32.34
2018-07-24T11:25:00.141Z,32.42
2018-07-24T11:27:27.016Z,32.35
2018-07-24T11:29:54.424Z,32.56
2018-07-24T11:35:00.183Z,32.60
2018-07-24T11:37:26.797Z,32.29
2018-07-24T11:39:54.822Z,32.26
2018-07-24T11:42:22.280Z,32.18
2018-07-24T11:44:48.901Z,32.00
2018-07-24T11:47:15.656Z,32.12
2018-07-24T11:49:43.930Z,32.02
2018-07-24T11:52:10.429Z,32.08
2018-07-24T11:57:08.511Z,32.31
2018-07-24T11:59:36.893Z,32.13
2018-07-24T12:02:04.597Z,32.16
2018-07-24T12:04:31.120Z,32.60
2018-07-24T12:06:58.447Z,32.94
2018-07-24T12:11:56.781Z,32.88
2018-07-24T12:14:23.457Z,33.27
2018-07-24T12:16:53.291Z,33.18
2018-07-24T12:19:20.677Z,32.81
2018-07-24T12:21:48.897Z,32.87
2018-07-24T12:24:17.276Z,33.23
2018-07-24T12:26:43.877Z,33.41
2018-07-24T12:29:10.510Z,33.30
2018-07-24T12:31:37.560Z,33.90
2018-07-24T12:34:04.014Z,34.11
2018-07-24T12:36:30.633Z,34.22
2018-07-24T12:38:58.497Z,34.21
2018-07-24T12:41:25.132Z,34.27
2018-07-24T12:46:30.374Z,33.90
2018-07-24T12:49:04.502Z,34.08
2018-07-24T12:51:33.800Z,34.10
2018-07-24T12:54:00.651Z,33.88
2018-07-24T12:56:27.244Z,33.99
2018-07-24T12:58:54.844Z,34.26
2018-07-24T13:01:21.711Z,34.51
2018-07-24T13:03:48.859Z,34.21
2018-07-24T13:06:15.364Z,33.86
2018-07-24T13:08:42.425Z,33.82
2018-07-24T13:11:12.540Z,34.35
2018-07-24T13:13:40.337Z,33.99
2018-07-24T13:16:07.645Z,33.70
2018-07-24T13:18:37.112Z,33.70
2018-07-24T13:21:04.158Z,33.86
2018-07-24T13:23:32.934Z,33.15
2018-07-24T13:26:00.529Z,32.62
2018-07-24T13:28:27.019Z,32.95
2018-07-24T13:30:53.796Z,33.36
2018-07-24T15:03:53.559Z,37.58
2018-07-24T15:16:28.805Z,39.51
2018-07-24T15:28:26.383Z,40.68
